Time;durP1;ratioP1;P1;durP2;ratioP2;P2;SDS_P1;SDS_P2;PMS_P1;PMS_P2;Temp;Humidity;BMP_temperature;BMP_pressure;BME280_temperature;BME280_humidity;BME280_pressure;Samples;Min_cycle;Max_cycle;Signal;HPM_P1;HPM_P2
2022/10/16 00:00:57;;;;;;;9.38;2.70;;;11.10;99.90;;;;;;5088432;28;20055;-78
2022/10/16 00:03:22;;;;;;;10.25;2.88;;;11.10;99.90;;;;;;5093755;28;20036;-77
2022/10/16 00:05:48;;;;;;;8.80;2.70;;;11.20;99.90;;;;;;5098446;28;20051;-77
2022/10/16 00:08:14;;;;;;;9.40;2.30;;;11.20;99.90;;;;;;5049564;28;20051;-78
2022/10/16 00:10:40;;;;;;;8.85;2.83;;;11.20;99.90;;;;;;5089210;28;20055;-78
2022/10/16 00:13:07;;;;;;;7.63;2.20;;;11.10;99.90;;;;;;5089130;28;20055;-79
2022/10/16 00:15:37;;;;;;;5.13;2.33;;;11.10;99.90;;;;;;5092898;28;20126;-78
2022/10/16 00:18:04;;;;;;;6.10;2.03;;;11.10;99.90;;;;;;5091815;28;20036;-78
2022/10/16 00:20:33;;;;;;;10.38;2.55;;;11.20;99.90;;;;;;5090071;28;20052;-77
2022/10/16 00:22:58;;;;;;;7.32;2.15;;;11.20;99.90;;;;;;5078475;28;20106;-77
2022/10/16 00:25:24;;;;;;;8.65;2.35;;;11.20;99.90;;;;;;5089072;28;20036;-79
2022/10/16 00:27:50;;;;;;;4.72;2.15;;;11.20;99.90;;;;;;5071609;28;20045;-78
2022/10/16 00:30:16;;;;;;;16.00;2.60;;;11.20;99.90;;;;;;5090867;28;20044;-78
2022/10/16 00:32:41;;;;;;;8.48;2.45;;;11.20;99.90;;;;;;5065456;28;20094;-78
2022/10/16 00:35:07;;;;;;;7.95;2.15;;;11.20;99.90;;;;;;5101951;28;20051;-78
2022/10/16 00:37:33;;;;;;;6.80;2.50;;;11.20;99.90;;;;;;5069505;28;20093;-77
2022/10/16 00:39:58;;;;;;;8.00;2.17;;;11.20;99.90;;;;;;5088943;28;20123;-77
2022/10/16 00:42:24;;;;;;;8.93;2.25;;;11.20;99.90;;;;;;5074639;28;20041;-78
2022/10/16 00:44:53;;;;;;;11.68;2.78;;;11.10;99.90;;;;;;5094848;28;20140;-78
2022/10/16 00:47:23;;;;;;;5.88;2.05;;;11.10;99.90;;;;;;5076170;28;20040;-78
2022/10/16 00:49:53;;;;;;;4.88;2.00;;;11.20;99.90;;;;;;5107778;27;20098;-79
2022/10/16 00:52:19;;;;;;;7.38;2.30;;;11.20;99.90;;;;;;5077433;28;20462;-78
2022/10/16 00:54:46;;;;;;;6.38;2.47;;;11.20;99.90;;;;;;5085287;28;20040;-78
2022/10/16 00:57:13;;;;;;;7.53;2.03;;;11.20;99.90;;;;;;5077237;28;20040;-78
2022/10/16 00:59:40;;;;;;;8.63;2.20;;;11.10;99.90;;;;;;5103520;28;20046;-77
2022/10/16 01:02:08;;;;;;;7.10;1.98;;;11.10;99.90;;;;;;5085617;28;20098;-79
2022/10/16 01:04:48;;;;;;;8.23;2.10;;;11.10;99.90;;;;;;5084684;28;20131;-78
2022/10/16 01:07:45;;;;;;;9.85;2.40;;;11.10;99.90;;;;;;5079089;28;20048;-77
2022/10/16 01:10:29;;;;;;;11.07;2.80;;;11.10;99.90;;;;;;5065429;28;20049;-79
2022/10/16 01:13:10;;;;;;;8.57;2.67;;;11.10;99.90;;;;;;5106880;28;20522;-79
2022/10/16 01:15:52;;;;;;;4.10;1.90;;;11.10;99.90;;;;;;5099446;28;20189;-79
2022/10/16 01:18:35;;;;;;;8.93;2.53;;;11.20;99.90;;;;;;5090559;28;20085;-82
2022/10/16 01:21:09;;;;;;;7.85;2.70;;;11.20;99.90;;;;;;5079609;28;20063;-78
2022/10/16 01:24:08;;;;;;;7.07;2.45;;;11.20;99.90;;;;;;5091145;28;20106;-78
2022/10/16 01:27:07;;;;;;;7.85;2.05;;;11.10;99.90;;;;;;5108585;28;20029;-77
2022/10/16 01:29:45;;;;;;;11.68;2.17;;;11.20;99.90;;;;;;5079609;28;20048;-77
2022/10/16 01:32:33;;;;;;;7.07;2.22;;;11.20;99.90;;;;;;5111882;28;20055;-78
2022/10/16 01:35:00;;;;;;;11.35;2.55;;;11.20;99.90;;;;;;5085469;28;20045;-79
2022/10/16 01:37:41;;;;;;;7.20;2.13;;;11.20;99.90;;;;;;5098593;28;20082;-78
2022/10/16 01:40:14;;;;;;;7.50;2.42;;;11.30;99.90;;;;;;5081910;28;20085;-79
2022/10/16 01:42:44;;;;;;;7.32;2.42;;;11.30;99.90;;;;;;5110303;28;20110;-79
2022/10/16 01:45:13;;;;;;;8.85;2.03;;;11.30;99.90;;;;;;5080808;28;20495;-79
2022/10/16 01:47:40;;;;;;;5.05;2.17;;;11.40;99.90;;;;;;5087196;28;20056;-78
2022/10/16 01:50:08;;;;;;;6.57;2.15;;;11.40;99.90;;;;;;5083986;28;20745;-77
2022/10/16 01:52:38;;;;;;;6.13;2.10;;;11.40;99.90;;;;;;5078942;28;20040;-78
2022/10/16 01:55:07;;;;;;;9.27;1.95;;;11.40;99.90;;;;;;5076389;28;20148;-78
2022/10/16 01:57:38;;;;;;;5.88;2.15;;;11.40;99.90;;;;;;5079193;28;20068;-77
2022/10/16 02:00:08;;;;;;;7.00;2.03;;;11.40;99.90;;;;;;5087119;28;20040;-78
2022/10/16 02:02:34;;;;;;;6.28;2.35;;;11.40;99.90;;;;;;5084096;28;20048;-77
2022/10/16 02:05:27;;;;;;;7.75;2.30;;;11.40;99.90;;;;;;5084566;28;20098;-78
2022/10/16 02:07:53;;;;;;;7.82;1.80;;;11.40;99.90;;;;;;5084720;28;20044;-77
2022/10/16 02:10:19;;;;;;;4.18;2.13;;;11.40;99.90;;;;;;5116576;28;20424;-77
2022/10/16 02:12:53;;;;;;;6.45;2.15;;;11.40;99.90;;;;;;5091476;28;20139;-79
2022/10/16 02:15:19;;;;;;;5.05;2.00;;;11.50;99.90;;;;;;5089718;28;20073;-77
2022/10/16 02:17:45;;;;;;;4.97;2.03;;;11.50;99.90;;;;;;5087473;28;20282;-80
2022/10/16 02:20:11;;;;;;;5.10;2.20;;;11.50;99.90;;;;;;5116943;27;20047;-79
2022/10/16 02:22:42;;;;;;;7.00;2.00;;;11.50;99.90;;;;;;5089908;28;20055;-79
2022/10/16 02:25:09;;;;;;;8.38;2.03;;;11.60;99.90;;;;;;5090424;28;20119;-77
2022/10/16 02:27:55;;;;;;;6.90;2.05;;;11.60;99.90;;;;;;5092869;28;20043;-78
2022/10/16 02:30:34;;;;;;;6.13;2.17;;;11.60;99.90;;;;;;5091835;28;20474;-78
2022/10/16 02:33:02;;;;;;;6.72;2.47;;;11.70;99.90;;;;;;5095626;28;20098;-78
2022/10/16 02:35:29;;;;;;;6.03;2.40;;;11.70;99.90;;;;;;5090320;28;20490;-82
2022/10/16 02:37:56;;;;;;;4.72;2.38;;;11.70;99.90;;;;;;5090918;28;20115;-79
2022/10/16 02:40:22;;;;;;;6.03;3.03;;;11.70;99.90;;;;;;5108020;28;20055;-78
2022/10/16 02:42:51;;;;;;;5.45;2.33;;;11.70;99.90;;;;;;5095608;28;20574;-78
2022/10/16 02:45:17;;;;;;;4.50;2.30;;;11.70;99.90;;;;;;5122358;27;20028;-78
2022/10/16 02:47:43;;;;;;;9.70;2.70;;;11.70;99.90;;;;;;5091968;28;20047;-78
2022/10/16 02:50:09;;;;;;;9.73;2.38;;;11.70;99.90;;;;;;5112851;27;20037;-78
2022/10/16 02:52:34;;;;;;;8.90;2.88;;;11.80;99.90;;;;;;5104293;28;20044;-79
2022/10/16 02:55:00;;;;;;;4.43;2.30;;;11.80;99.90;;;;;;5087826;28;20097;-78
2022/10/16 02:57:26;;;;;;;5.80;2.38;;;11.80;99.90;;;;;;5116554;27;20643;-78
2022/10/16 02:59:51;;;;;;;6.95;2.58;;;11.80;99.90;;;;;;5084681;28;20575;-77
2022/10/16 03:02:17;;;;;;;4.45;2.45;;;11.90;99.90;;;;;;5084419;28;20048;-77
2022/10/16 03:04:43;;;;;;;5.03;2.28;;;11.80;99.90;;;;;;5110285;27;20033;-77
2022/10/16 03:07:08;;;;;;;8.55;2.70;;;11.90;99.90;;;;;;5083992;28;20387;-77
2022/10/16 03:09:34;;;;;;;5.15;2.75;;;11.90;99.90;;;;;;5059943;28;20071;-78
2022/10/16 03:12:00;;;;;;;6.75;2.40;;;11.90;99.90;;;;;;5072073;28;20178;-78
2022/10/16 03:14:26;;;;;;;7.72;2.80;;;11.90;99.90;;;;;;5110587;27;20394;-78
2022/10/16 03:16:52;;;;;;;7.50;2.67;;;11.90;99.90;;;;;;5096115;28;20542;-78
2022/10/16 03:19:18;;;;;;;3.25;2.30;;;11.80;99.90;;;;;;5090359;28;20510;-77
2022/10/16 03:21:44;;;;;;;6.72;2.60;;;11.80;99.90;;;;;;5117553;27;20081;-77
2022/10/16 03:24:10;;;;;;;7.30;2.33;;;11.80;99.90;;;;;;5088943;28;20135;-78
2022/10/16 03:26:36;;;;;;;4.63;2.40;;;11.90;99.90;;;;;;5070123;28;20189;-82
2022/10/16 03:29:03;;;;;;;4.32;2.40;;;11.80;99.90;;;;;;5080323;28;20428;-78
2022/10/16 03:31:29;;;;;;;6.97;2.90;;;11.90;99.90;;;;;;5078458;28;20048;-78
2022/10/16 03:33:55;;;;;;;7.35;2.92;;;11.90;99.90;;;;;;5083181;28;20048;-78
2022/10/16 03:36:21;;;;;;;6.10;2.88;;;11.80;99.90;;;;;;5098640;28;20048;-77
2022/10/16 03:38:46;;;;;;;5.45;2.20;;;11.80;99.90;;;;;;5088451;28;20107;-79
2022/10/16 03:41:12;;;;;;;7.63;2.55;;;11.70;99.90;;;;;;5087247;28;20037;-77
2022/10/16 03:43:38;;;;;;;7.72;2.63;;;11.70;99.90;;;;;;5122012;27;20136;-82
2022/10/16 03:46:04;;;;;;;4.35;2.22;;;11.70;99.90;;;;;;5095276;28;20047;-77
2022/10/16 03:48:30;;;;;;;4.60;2.17;;;11.70;99.90;;;;;;5092877;28;20523;-78
2022/10/16 03:50:55;;;;;;;7.95;2.33;;;11.70;99.90;;;;;;5101188;28;20477;-78
2022/10/16 03:53:21;;;;;;;6.53;2.50;;;11.70;99.90;;;;;;5099949;28;20084;-78
2022/10/16 03:55:47;;;;;;;5.60;2.15;;;11.70;99.90;;;;;;5092903;28;20043;-77
2022/10/16 03:58:12;;;;;;;4.57;2.20;;;11.80;99.90;;;;;;5103014;28;20119;-77
2022/10/16 04:00:42;;;;;;;8.98;2.28;;;11.80;99.90;;;;;;5092893;28;20039;-82
2022/10/16 04:03:08;;;;;;;5.22;2.17;;;11.80;99.90;;;;;;5122278;27;20042;-77
2022/10/16 04:05:34;;;;;;;8.45;2.10;;;11.70;99.90;;;;;;5093143;28;20048;-78
2022/10/16 04:08:00;;;;;;;7.07;2.50;;;11.60;99.90;;;;;;5092141;28;20273;-74
2022/10/16 04:10:26;;;;;;;7.20;2.40;;;11.60;99.90;;;;;;5092873;28;20481;-75
2022/10/16 04:12:54;;;;;;;5.55;2.40;;;11.60;99.90;;;;;;5092209;28;20043;-75
2022/10/16 04:15:20;;;;;;;6.32;2.85;;;11.60;99.90;;;;;;5125803;27;20048;-76
2022/10/16 04:17:45;;;;;;;6.00;2.17;;;11.60;99.90;;;;;;5091465;28;20048;-75
2022/10/16 04:20:11;;;;;;;8.35;2.50;;;11.60;99.90;;;;;;5092486;28;20042;-75
2022/10/16 04:22:36;;;;;;;7.43;2.70;;;11.60;99.90;;;;;;5085196;28;20368;-76
2022/10/16 04:25:02;;;;;;;6.80;2.85;;;11.60;99.90;;;;;;5085870;28;20043;-75
2022/10/16 04:27:31;;;;;;;5.03;2.78;;;11.70;99.90;;;;;;5117108;27;20051;-75
2022/10/16 04:29:59;;;;;;;6.93;2.85;;;11.70;99.90;;;;;;5074716;28;20063;-76
2022/10/16 04:32:26;;;;;;;5.93;2.85;;;11.80;99.90;;;;;;5080260;28;20840;-75
2022/10/16 04:34:52;;;;;;;7.50;2.83;;;11.70;99.90;;;;;;5089361;28;20096;-74
2022/10/16 04:37:18;;;;;;;7.88;2.88;;;11.70;99.90;;;;;;5119292;27;20043;-75
2022/10/16 04:39:44;;;;;;;5.07;2.63;;;11.70;99.90;;;;;;5081989;28;20075;-81
2022/10/16 04:42:10;;;;;;;7.15;2.95;;;11.60;99.90;;;;;;5121694;27;20482;-75
2022/10/16 04:44:36;;;;;;;5.97;3.47;;;11.50;99.90;;;;;;5121995;27;20051;-75
2022/10/16 04:47:01;;;;;;;6.60;3.05;;;11.50;99.90;;;;;;5080362;28;20040;-76
2022/10/16 04:49:27;;;;;;;5.97;2.95;;;11.40;99.90;;;;;;5092704;27;20119;-76
2022/10/16 04:51:53;;;;;;;6.50;3.20;;;11.50;99.90;;;;;;5119538;27;20038;-75
2022/10/16 04:54:19;;;;;;;3.65;2.70;;;11.60;99.90;;;;;;5054290;28;20098;-75
2022/10/16 04:56:47;;;;;;;6.68;3.17;;;11.70;99.90;;;;;;5120811;27;20063;-77
2022/10/16 04:59:14;;;;;;;4.43;3.30;;;11.70;99.90;;;;;;5109401;27;20040;-75
2022/10/16 05:01:40;;;;;;;4.22;2.70;;;11.80;99.90;;;;;;5076860;28;20048;-75
2022/10/16 05:04:05;;;;;;;7.15;3.03;;;11.80;99.90;;;;;;5062203;28;20039;-76
2022/10/16 05:06:31;;;;;;;8.40;3.15;;;11.90;99.90;;;;;;5084390;28;20478;-76
2022/10/16 05:08:57;;;;;;;5.22;2.83;;;12.00;99.90;;;;;;5090324;28;20044;-76
2022/10/16 05:11:23;;;;;;;5.22;2.58;;;12.00;99.90;;;;;;5090246;28;20089;-76
2022/10/16 05:13:48;;;;;;;7.47;3.25;;;12.00;99.90;;;;;;5075236;28;20048;-79
2022/10/16 05:16:14;;;;;;;7.30;3.33;;;12.00;99.90;;;;;;5115812;28;20665;-75
2022/10/16 05:18:40;;;;;;;5.53;3.45;;;12.00;99.90;;;;;;5113131;28;20090;-76
2022/10/16 05:21:05;;;;;;;8.65;3.22;;;12.00;99.90;;;;;;5088614;28;20048;-78
2022/10/16 05:23:31;;;;;;;7.40;3.15;;;11.90;99.90;;;;;;5097548;28;20078;-76
2022/10/16 05:25:59;;;;;;;9.57;3.55;;;11.90;99.90;;;;;;5120741;27;20042;-76
2022/10/16 05:28:27;;;;;;;7.53;3.30;;;11.90;99.90;;;;;;5100109;28;20054;-77
2022/10/16 05:30:53;;;;;;;4.57;3.20;;;11.90;99.90;;;;;;5101330;28;20039;-80
2022/10/16 05:33:24;;;;;;;6.82;3.58;;;12.00;99.90;;;;;;5114816;28;20040;-76
2022/10/16 05:35:50;;;;;;;4.93;3.38;;;11.90;99.90;;;;;;5072808;28;20182;-78
2022/10/16 05:38:17;;;;;;;5.28;3.30;;;11.90;99.90;;;;;;5082390;28;20043;-76
2022/10/16 05:40:43;;;;;;;9.75;3.55;;;11.80;99.90;;;;;;5088620;28;20044;-75
2022/10/16 05:43:09;;;;;;;7.78;3.30;;;11.90;99.90;;;;;;5078842;28;20051;-77
2022/10/16 05:45:35;;;;;;;5.10;3.17;;;11.90;99.90;;;;;;5102389;28;20039;-77
2022/10/16 05:48:00;;;;;;;5.13;3.30;;;11.90;99.90;;;;;;5087188;27;20058;-77
2022/10/16 05:50:26;;;;;;;6.22;3.42;;;11.90;99.90;;;;;;5095602;28;20048;-77
2022/10/16 05:52:52;;;;;;;6.53;3.50;;;12.00;99.90;;;;;;5085684;28;20420;-78
2022/10/16 05:55:18;;;;;;;8.50;3.38;;;11.90;99.90;;;;;;5081933;28;20041;-77
2022/10/16 05:57:43;;;;;;;7.45;3.95;;;12.00;99.90;;;;;;5100716;27;20513;-78
2022/10/16 06:00:10;;;;;;;5.30;3.25;;;12.00;99.90;;;;;;5076550;27;20051;-79
2022/10/16 06:02:36;;;;;;;7.10;4.07;;;12.00;99.90;;;;;;5064950;28;20040;-78
2022/10/16 06:05:01;;;;;;;7.68;3.67;;;12.00;99.90;;;;;;5040399;28;20077;-77
2022/10/16 06:07:27;;;;;;;6.95;3.30;;;12.00;99.90;;;;;;5085562;28;20046;-77
2022/10/16 06:09:53;;;;;;;7.60;3.53;;;12.00;99.90;;;;;;5055706;28;20067;-78
2022/10/16 06:12:19;;;;;;;6.72;3.30;;;12.00;99.90;;;;;;5090826;28;20039;-78
2022/10/16 06:14:49;;;;;;;8.93;3.80;;;12.00;99.90;;;;;;5076335;28;20130;-77
2022/10/16 06:17:15;;;;;;;4.75;3.22;;;12.00;99.90;;;;;;5093524;28;20036;-78
2022/10/16 06:19:41;;;;;;;6.90;3.67;;;12.10;99.90;;;;;;5090798;28;20035;-78
2022/10/16 06:22:07;;;;;;;7.82;3.65;;;12.10;99.90;;;;;;5093012;28;20039;-78
2022/10/16 06:24:32;;;;;;;8.10;3.40;;;12.10;99.90;;;;;;5089346;28;20039;-78
2022/10/16 06:26:58;;;;;;;5.13;2.88;;;12.10;99.90;;;;;;5123802;27;20344;-81
2022/10/16 06:29:24;;;;;;;5.15;3.08;;;12.10;99.90;;;;;;5081864;28;20050;-79
2022/10/16 06:31:49;;;;;;;11.05;3.28;;;12.20;99.90;;;;;;5057499;28;20371;-77
2022/10/16 06:34:15;;;;;;;6.32;2.92;;;12.20;99.90;;;;;;5091039;28;20465;-78
2022/10/16 06:36:41;;;;;;;6.90;3.00;;;12.30;99.90;;;;;;5089483;28;20113;-78
2022/10/16 06:39:07;;;;;;;6.72;3.45;;;12.30;99.90;;;;;;5125166;27;20110;-78
2022/10/16 06:41:33;;;;;;;4.18;3.20;;;12.20;99.90;;;;;;5088676;28;20028;-80
2022/10/16 06:43:59;;;;;;;3.80;2.60;;;12.20;99.90;;;;;;5084398;28;20036;-81
2022/10/16 06:46:26;;;;;;;6.85;3.05;;;12.20;99.90;;;;;;5118762;27;20048;-78
2022/10/16 06:48:53;;;;;;;3.80;3.10;;;12.30;99.90;;;;;;5089512;27;20054;-79
2022/10/16 06:51:23;;;;;;;3.90;2.70;;;12.30;99.90;;;;;;5070455;28;20516;-77
2022/10/16 06:53:51;;;;;;;5.97;2.65;;;12.30;99.90;;;;;;5068848;28;20854;-77
2022/10/16 06:56:22;;;;;;;6.88;3.00;;;12.40;99.90;;;;;;5080465;28;20040;-78
2022/10/16 06:58:49;;;;;;;4.60;2.85;;;12.40;99.90;;;;;;5129580;27;20048;-77
2022/10/16 07:01:16;;;;;;;9.18;3.10;;;12.50;99.90;;;;;;5119651;27;20473;-77
2022/10/16 07:03:44;;;;;;;6.15;2.63;;;12.50;99.90;;;;;;5078120;28;20051;-77
2022/10/16 07:06:12;;;;;;;5.03;3.25;;;12.60;99.90;;;;;;5063847;28;20126;-79
2022/10/16 07:08:40;;;;;;;6.35;3.03;;;12.60;99.90;;;;;;5110399;28;20051;-78
2022/10/16 07:11:11;;;;;;;5.80;2.72;;;12.60;99.90;;;;;;5090451;28;20116;-80
2022/10/16 07:13:38;;;;;;;6.38;2.95;;;12.60;99.90;;;;;;5083911;28;20039;-79
2022/10/16 07:16:09;;;;;;;7.45;2.72;;;12.60;99.90;;;;;;5095161;28;20048;-81
2022/10/16 07:18:36;;;;;;;5.68;2.60;;;12.60;99.90;;;;;;5099719;28;20036;-79
2022/10/16 07:21:20;;;;;;;5.07;2.78;;;12.60;99.90;;;;;;5094658;28;20520;-77
2022/10/16 07:23:50;;;;;;;4.97;2.33;;;12.80;99.90;;;;;;5094356;27;20099;-79
2022/10/16 07:26:16;;;;;;;4.80;2.30;;;12.80;99.90;;;;;;5084606;27;22126;-77
2022/10/16 07:28:43;;;;;;;10.55;2.88;;;12.90;99.90;;;;;;5086935;28;20086;-78
2022/10/16 07:31:13;;;;;;;6.45;2.53;;;12.90;99.90;;;;;;5097115;28;20044;-77
2022/10/16 07:33:41;;;;;;;7.05;2.60;;;13.00;99.90;;;;;;5082091;28;20118;-77
2022/10/16 07:36:07;;;;;;;3.85;2.55;;;13.00;99.90;;;;;;5088432;28;20051;-82
2022/10/16 07:38:33;;;;;;;6.85;2.78;;;13.10;99.90;;;;;;5081812;28;20084;-78
2022/10/16 07:41:01;;;;;;;6.18;2.80;;;13.10;99.90;;;;;;5094890;28;20047;-77
2022/10/16 07:43:27;;;;;;;5.43;2.55;;;13.10;99.90;;;;;;5088004;28;20036;-78
2022/10/16 07:45:53;;;;;;;6.00;2.10;;;13.10;99.90;;;;;;5082818;27;20080;-77
2022/10/16 07:48:19;;;;;;;6.32;2.50;;;13.10;99.90;;;;;;5091251;27;20039;-77
2022/10/16 07:50:45;;;;;;;6.20;2.20;;;13.10;99.90;;;;;;5127228;27;20463;-77
2022/10/16 07:53:11;;;;;;;7.85;2.90;;;13.10;99.90;;;;;;5083144;27;20056;-82
2022/10/16 07:55:38;;;;;;;6.72;2.50;;;13.10;99.90;;;;;;5101422;27;20099;-76
2022/10/16 07:58:04;;;;;;;5.63;2.17;;;13.10;99.90;;;;;;5053491;27;20364;-76
2022/10/16 08:00:30;;;;;;;11.30;2.50;;;13.10;99.90;;;;;;5094612;27;20072;-80
2022/10/16 08:02:59;;;;;;;7.32;3.00;;;13.00;99.90;;;;;;5078726;28;20109;-77
2022/10/16 08:05:26;;;;;;;7.80;2.28;;;13.00;99.90;;;;;;5123924;27;20086;-79
2022/10/16 08:07:53;;;;;;;9.32;2.13;;;13.00;99.90;;;;;;5077105;27;20052;-78
2022/10/16 08:10:20;;;;;;;5.95;2.47;;;13.00;99.90;;;;;;5061072;27;20130;-77
2022/10/16 08:12:46;;;;;;;5.60;2.00;;;13.10;99.90;;;;;;5067103;28;20185;-81
2022/10/16 08:15:12;;;;;;;7.03;1.75;;;13.20;99.90;;;;;;5069946;27;20496;-83
2022/10/16 08:17:37;;;;;;;7.13;2.13;;;13.30;99.90;;;;;;5047097;27;20048;-77
2022/10/16 08:20:04;;;;;;;8.85;2.08;;;13.40;99.90;;;;;;5071890;28;20096;-77
2022/10/16 08:22:29;;;;;;;5.70;1.65;;;13.50;99.90;;;;;;5095784;27;20047;-78
2022/10/16 08:24:55;;;;;;;5.28;1.98;;;13.50;99.90;;;;;;5062300;28;21085;-77
2022/10/16 08:27:21;;;;;;;4.72;1.50;;;13.60;99.90;;;;;;5067538;28;20039;-79
2022/10/16 08:29:48;;;;;;;3.00;1.60;;;13.60;99.90;;;;;;5077658;28;20139;-78
2022/10/16 08:32:14;;;;;;;7.75;1.52;;;13.70;99.90;;;;;;5072071;28;20064;-82
2022/10/16 08:34:40;;;;;;;7.07;1.98;;;13.60;99.90;;;;;;5067522;27;20150;-78
2022/10/16 08:37:07;;;;;;;5.78;1.40;;;13.60;99.90;;;;;;5094264;28;20520;-80
2022/10/16 08:39:33;;;;;;;4.63;1.73;;;13.50;99.90;;;;;;5123631;27;20385;-77
2022/10/16 08:42:02;;;;;;;4.32;1.60;;;13.60;99.90;;;;;;5092007;28;20059;-78
2022/10/16 08:44:58;;;;;;;5.85;1.38;;;13.80;99.90;;;;;;5092110;28;20042;-78
2022/10/16 08:47:38;;;;;;;3.10;1.42;;;14.00;99.90;;;;;;5124189;27;20119;-78
2022/10/16 08:50:21;;;;;;;4.47;1.25;;;14.20;99.90;;;;;;5072477;28;20109;-77
2022/10/16 08:52:46;;;;;;;5.28;1.30;;;14.40;99.90;;;;;;5092924;28;20112;-78
2022/10/16 08:55:34;;;;;;;2.88;1.20;;;14.50;99.90;;;;;;5078859;28;21465;-79
2022/10/16 08:58:01;;;;;;;3.67;1.38;;;14.40;99.90;;;;;;5074329;28;20101;-81
2022/10/16 09:00:27;;;;;;;2.08;1.00;;;14.30;99.90;;;;;;5105072;28;20131;-78
2022/10/16 09:02:58;;;;;;;6.95;1.52;;;14.20;99.90;;;;;;5108107;28;20058;-76
2022/10/16 09:05:24;;;;;;;4.05;1.40;;;14.20;99.90;;;;;;5082620;28;20040;-77
2022/10/16 09:08:03;;;;;;;4.32;1.35;;;14.10;99.90;;;;;;5072412;28;20100;-78
2022/10/16 09:10:48;;;;;;;3.78;1.77;;;14.20;99.90;;;;;;5104335;28;20110;-76
2022/10/16 09:13:28;;;;;;;8.10;1.60;;;14.30;99.90;;;;;;5092570;28;20071;-77
2022/10/16 09:16:21;;;;;;;7.40;1.70;;;14.30;99.90;;;;;;5091402;28;20031;-77
2022/10/16 09:18:56;;;;;;;5.43;1.50;;;14.30;99.90;;;;;;5124310;27;20040;-78
2022/10/16 09:21:30;;;;;;;10.55;2.28;;;14.30;99.90;;;;;;5068851;28;20040;-81
2022/10/16 09:24:18;;;;;;;8.43;1.77;;;14.30;99.90;;;;;;5098773;27;20048;-78
2022/10/16 09:26:45;;;;;;;4.55;2.03;;;14.40;99.90;;;;;;5075242;27;20436;-77
2022/10/16 09:29:24;;;;;;;7.57;2.13;;;14.50;99.90;;;;;;5072249;28;20055;-77
2022/10/16 09:31:51;;;;;;;5.88;2.25;;;14.60;99.90;;;;;;5076211;28;20517;-79
2022/10/16 09:34:33;;;;;;;9.45;2.20;;;14.80;99.90;;;;;;5075775;27;20119;-81
2022/10/16 09:37:09;;;;;;;9.20;2.00;;;14.90;99.90;;;;;;5086634;28;20062;-78
2022/10/16 09:39:51;;;;;;;11.20;2.10;;;15.00;99.90;;;;;;5092354;28;20044;-79
2022/10/16 09:42:23;;;;;;;8.38;2.10;;;15.00;99.90;;;;;;5091670;27;20043;-79
2022/10/16 09:44:53;;;;;;;6.82;1.80;;;15.10;99.90;;;;;;5098174;27;20032;-77
2022/10/16 09:47:30;;;;;;;9.18;1.90;;;15.20;99.90;;;;;;5065253;28;20051;-81
2022/10/16 09:50:02;;;;;;;10.75;2.20;;;15.20;99.90;;;;;;5087792;28;20043;-76
2022/10/16 09:52:32;;;;;;;7.40;2.13;;;15.30;99.90;;;;;;5085991;27;20088;-81
2022/10/16 09:55:00;;;;;;;7.50;2.10;;;15.30;99.90;;;;;;5074405;27;20064;-77
2022/10/16 09:57:26;;;;;;;8.82;1.80;;;15.60;99.90;;;;;;5086478;27;20039;-77
2022/10/16 09:59:54;;;;;;;7.30;1.65;;;15.90;99.90;;;;;;5101767;27;20167;-81
2022/10/16 10:02:43;;;;;;;8.75;1.70;;;16.10;99.90;;;;;;5093264;27;20066;-77
2022/10/16 10:05:25;;;;;;;12.23;2.50;;;16.40;99.90;;;;;;5102217;27;20156;-76
2022/10/16 10:08:06;;;;;;;13.05;2.42;;;16.50;99.90;;;;;;5083450;27;20039;-82
2022/10/16 10:10:41;;;;;;;8.18;1.85;;;16.60;99.90;;;;;;5071922;28;20051;-78
2022/10/16 10:13:19;;;;;;;23.48;2.92;;;16.40;99.90;;;;;;5081385;28;20031;-77
2022/10/16 10:15:45;;;;;;;8.20;1.85;;;16.20;99.90;;;;;;5081784;27;20765;-76
2022/10/16 10:18:23;;;;;;;40.00;3.38;;;16.00;99.90;;;;;;5072397;27;20043;-81
2022/10/16 10:21:00;;;;;;;9.30;1.70;;;16.10;99.90;;;;;;5069284;27;20067;-76
2022/10/16 10:23:28;;;;;;;6.15;1.65;;;16.30;99.90;;;;;;5097517;27;20036;-77
2022/10/16 10:26:16;;;;;;;10.05;1.98;;;16.40;99.90;;;;;;5074168;27;20143;-81
2022/10/16 10:28:44;;;;;;;4.47;1.15;;;16.30;99.90;;;;;;5080867;27;20122;-76
2022/10/16 10:31:34;;;;;;;10.57;1.55;;;16.20;99.90;;;;;;5107843;27;20047;-77
2022/10/16 10:34:02;;;;;;;9.68;2.03;;;16.20;99.90;;;;;;5090148;28;20040;-77
2022/10/16 10:36:41;;;;;;;11.60;2.35;;;16.30;99.90;;;;;;5094145;28;20055;-77
2022/10/16 10:39:11;;;;;;;8.00;2.13;;;16.30;99.90;;;;;;5085397;28;20040;-79
2022/10/16 10:41:40;;;;;;;9.23;1.70;;;16.50;99.90;;;;;;5076141;28;20131;-79
2022/10/16 10:44:33;;;;;;;9.10;1.73;;;16.50;99.90;;;;;;5091074;28;21304;-79
2022/10/16 10:47:21;;;;;;;5.55;1.40;;;16.70;99.90;;;;;;5095223;27;20135;-77
2022/10/16 10:49:55;;;;;;;9.98;2.03;;;17.00;99.90;;;;;;5083904;28;20063;-78
2022/10/16 10:52:37;;;;;;;9.68;1.90;;;17.30;99.90;;;;;;5072885;28;20154;-77
2022/10/16 10:55:28;;;;;;;10.35;1.52;;;17.50;99.90;;;;;;5104577;27;20051;-77
2022/10/16 10:58:06;;;;;;;8.73;1.88;;;17.60;99.90;;;;;;5082005;27;20039;-77
2022/10/16 11:00:53;;;;;;;9.52;1.88;;;17.50;99.90;;;;;;5105586;28;20040;-78
2022/10/16 11:03:42;;;;;;;12.30;2.00;;;17.40;99.90;;;;;;5093818;28;20046;-77
2022/10/16 11:06:26;;;;;;;8.02;2.00;;;17.10;99.90;;;;;;5093786;28;20070;-76
2022/10/16 11:09:31;;;;;;;7.43;1.70;;;16.90;99.90;;;;;;5114063;27;20039;-77
2022/10/16 11:12:14;;;;;;;8.75;1.50;;;17.00;99.90;;;;;;5081286;28;20657;-78
2022/10/16 11:14:51;;;;;;;10.50;2.10;;;17.20;99.90;;;;;;5089403;28;20166;-77
2022/10/16 11:17:24;;;;;;;15.52;2.40;;;17.60;99.90;;;;;;5085634;28;20142;-77
2022/10/16 11:20:11;;;;;;;10.77;1.80;;;17.80;99.90;;;;;;5108728;28;20127;-80
2022/10/16 11:22:42;;;;;;;13.63;1.80;;;17.90;99.90;;;;;;5093451;28;20054;-77
2022/10/16 11:25:26;;;;;;;10.85;1.80;;;17.90;99.90;;;;;;5100853;28;20047;-77
2022/10/16 11:28:13;;;;;;;9.32;1.85;;;17.80;99.90;;;;;;5092088;28;20044;-77
2022/10/16 11:30:59;;;;;;;15.32;1.65;;;17.60;99.90;;;;;;5093562;28;20047;-77
2022/10/16 11:33:35;;;;;;;10.38;1.98;;;17.50;99.90;;;;;;5094569;28;20047;-77
2022/10/16 11:36:05;;;;;;;;;;;17.50;99.90;;;;;;5092971;28;20489;-77
2022/10/16 11:38:41;;;;;;;11.68;1.90;;;17.40;99.90;;;;;;5093156;28;19919;-79
2022/10/16 11:41:22;;;;;;;8.43;1.60;;;17.50;99.90;;;;;;5086896;28;20044;-77
2022/10/16 11:44:15;;;;;;;8.23;1.73;;;17.60;99.90;;;;;;5110485;27;20044;-77
2022/10/16 11:46:48;;;;;;;11.65;1.88;;;17.50;99.90;;;;;;5098610;28;20047;-78
2022/10/16 11:49:21;;;;;;;12.02;1.90;;;17.40;99.90;;;;;;5092945;28;20447;-77
2022/10/16 11:52:07;;;;;;;10.73;1.63;;;17.20;99.90;;;;;;5092102;28;20036;-77
2022/10/16 11:55:00;;;;;;;10.90;1.33;;;17.20;99.90;;;;;;5092935;28;20047;-77
2022/10/16 11:57:34;;;;;;;9.25;2.00;;;17.20;99.90;;;;;;5073479;27;20393;-79
2022/10/16 12:00:12;;;;;;;6.55;1.52;;;17.10;99.90;;;;;;5095599;28;20046;-77
2022/10/16 12:02:50;;;;;;;12.35;2.15;;;17.00;99.90;;;;;;5112479;27;20047;-77
2022/10/16 12:05:41;;;;;;;14.40;2.67;;;16.80;99.90;;;;;;5068818;28;21475;-82
2022/10/16 12:08:11;;;;;;;10.18;1.98;;;16.70;99.90;;;;;;5103223;28;20043;-78
2022/10/16 12:10:38;;;;;;;10.18;2.25;;;16.70;99.90;;;;;;5092342;28;20135;-78
2022/10/16 12:13:30;;;;;;;12.38;2.03;;;16.80;99.90;;;;;;5089513;28;20032;-77
2022/10/16 12:16:14;;;;;;;10.32;2.00;;;17.00;99.90;;;;;;5099839;28;20060;-78
2022/10/16 12:18:42;;;;;;;8.80;1.73;;;17.20;99.90;;;;;;5100465;28;20043;-78
2022/10/16 12:21:08;;;;;;;10.32;1.77;;;17.30;99.90;;;;;;5107135;28;20301;-78
2022/10/16 12:23:38;;;;;;;7.10;1.52;;;17.40;99.90;;;;;;5098634;28;20046;-77
2022/10/16 12:26:05;;;;;;;13.40;2.28;;;17.30;99.90;;;;;;5089289;28;20394;-78
2022/10/16 12:28:35;;;;;;;11.43;1.90;;;17.30;99.90;;;;;;5084310;28;20036;-79
2022/10/16 12:31:06;;;;;;;11.18;1.75;;;17.40;99.90;;;;;;5108710;28;20043;-77
2022/10/16 12:33:34;;;;;;;12.57;2.08;;;17.50;99.90;;;;;;5092301;28;20039;-78
2022/10/16 12:36:03;;;;;;;9.10;2.00;;;17.40;99.90;;;;;;5125651;27;20047;-79
2022/10/16 12:38:47;;;;;;;10.52;1.77;;;17.70;99.90;;;;;;5091660;28;20432;-77
2022/10/16 12:41:25;;;;;;;10.30;2.17;;;17.90;99.90;;;;;;5080710;27;20043;-78
2022/10/16 12:43:50;;;;;;;9.65;1.58;;;17.90;99.90;;;;;;5051059;28;20048;-82
2022/10/16 12:46:16;;;;;;;10.65;1.83;;;17.80;99.90;;;;;;5106852;27;20051;-78
2022/10/16 12:48:44;;;;;;;9.30;1.60;;;17.70;99.90;;;;;;5086628;28;20055;-81
2022/10/16 12:51:28;;;;;;;7.95;1.60;;;17.60;99.90;;;;;;5066948;28;20047;-79
2022/10/16 12:54:23;;;;;;;13.68;2.05;;;17.50;99.90;;;;;;5110989;27;20040;-79
2022/10/16 12:57:07;;;;;;;11.02;1.88;;;17.50;99.90;;;;;;5074339;28;20048;-78
2022/10/16 12:59:58;;;;;;;12.07;2.55;;;17.60;99.90;;;;;;5081482;27;20035;-78
2022/10/16 13:02:45;;;;;;;8.85;2.00;;;17.70;99.90;;;;;;5105941;28;20071;-78
2022/10/16 13:05:43;;;;;;;7.72;2.25;;;17.80;99.90;;;;;;5090925;28;20040;-79